sensor_id;sensor_type;location;lat;lon;timestamp;pressure;altitude;pressure_sealevel;temperature;humidity
66560;BME280;53413;49.878;8.142;2023-07-29T00:02:16;99385.91;;;17.72;100.00
66560;BME280;53413;49.878;8.142;2023-07-29T00:04:41;99386.16;;;17.80;100.00
66560;BME280;53413;49.878;8.142;2023-07-29T00:07:07;99390.13;;;17.86;100.00
66560;BME280;53413;49.878;8.142;2023-07-29T00:09:32;99384.44;;;17.91;100.00
66560;BME280;53413;49.878;8.142;2023-07-29T00:11:57;99378.91;;;17.94;100.00
66560;BME280;53413;49.878;8.142;2023-07-29T00:14:23;99369.03;;;17.96;100.00
66560;BME280;53413;49.878;8.142;2023-07-29T00:16:49;99370.63;;;17.98;100.00
66560;BME280;53413;49.878;8.142;2023-07-29T00:19:14;99365.31;;;17.98;100.00
66560;BME280;53413;49.878;8.142;2023-07-29T00:21:39;99362.53;;;18.00;100.00
66560;BME280;53413;49.878;8.142;2023-07-29T00:24:06;99365.91;;;18.02;100.00
66560;BME280;53413;49.878;8.142;2023-07-29T00:26:31;99364.81;;;18.05;100.00
66560;BME280;53413;49.878;8.142;2023-07-29T00:28:57;99359.41;;;18.06;100.00
66560;BME280;53413;49.878;8.142;2023-07-29T00:31:22;99359.28;;;18.08;100.00
66560;BME280;53413;49.878;8.142;2023-07-29T00:33:48;99358.19;;;18.10;100.00
66560;BME280;53413;49.878;8.142;2023-07-29T00:36:13;99356.25;;;18.12;100.00
66560;BME280;53413;49.878;8.142;2023-07-29T00:38:38;99348.31;;;18.12;100.00
66560;BME280;53413;49.878;8.142;2023-07-29T00:41:04;99350.72;;;18.15;100.00
66560;BME280;53413;49.878;8.142;2023-07-29T00:43:30;99345.16;;;18.19;100.00
66560;BME280;53413;49.878;8.142;2023-07-29T00:45:56;99336.84;;;18.23;100.00
66560;BME280;53413;49.878;8.142;2023-07-29T00:48:23;99333.22;;;18.24;100.00
66560;BME280;53413;49.878;8.142;2023-07-29T00:50:49;99334.06;;;18.25;100.00
66560;BME280;53413;49.878;8.142;2023-07-29T00:53:15;99329.97;;;18.21;100.00
66560;BME280;53413;49.878;8.142;2023-07-29T00:55:41;99325.28;;;18.13;100.00
66560;BME280;53413;49.878;8.142;2023-07-29T00:58:07;99323.03;;;18.08;100.00
66560;BME280;53413;49.878;8.142;2023-07-29T01:00:32;99316.03;;;18.07;100.00
66560;BME280;53413;49.878;8.142;2023-07-29T01:02:57;99311.78;;;18.05;100.00
66560;BME280;53413;49.878;8.142;2023-07-29T01:05:30;99316.28;;;18.04;100.00
66560;BME280;53413;49.878;8.142;2023-07-29T01:08:20;99318.91;;;18.04;100.00
66560;BME280;53413;49.878;8.142;2023-07-29T01:10:58;99317.00;;;18.06;100.00
66560;BME280;53413;49.878;8.142;2023-07-29T01:13:44;99313.03;;;18.00;100.00
66560;BME280;53413;49.878;8.142;2023-07-29T01:16:20;99325.91;;;17.94;100.00
66560;BME280;53413;49.878;8.142;2023-07-29T01:18:47;99333.00;;;17.93;100.00
66560;BME280;53413;49.878;8.142;2023-07-29T01:21:16;99337.34;;;17.94;100.00
66560;BME280;53413;49.878;8.142;2023-07-29T01:23:42;99331.06;;;17.95;100.00
66560;BME280;53413;49.878;8.142;2023-07-29T01:26:08;99329.28;;;17.96;100.00
66560;BME280;53413;49.878;8.142;2023-07-29T01:28:34;99315.91;;;17.97;100.00
66560;BME280;53413;49.878;8.142;2023-07-29T01:31:04;99317.38;;;18.02;100.00
66560;BME280;53413;49.878;8.142;2023-07-29T01:33:37;99308.06;;;18.07;100.00
66560;BME280;53413;49.878;8.142;2023-07-29T01:36:13;99316.63;;;18.11;100.00
66560;BME280;53413;49.878;8.142;2023-07-29T01:38:43;99319.13;;;18.12;100.00
66560;BME280;53413;49.878;8.142;2023-07-29T01:41:10;99310.81;;;18.17;100.00
66560;BME280;53413;49.878;8.142;2023-07-29T01:43:37;99314.19;;;18.19;100.00
66560;BME280;53413;49.878;8.142;2023-07-29T01:46:12;99313.94;;;18.22;100.00
66560;BME280;53413;49.878;8.142;2023-07-29T01:48:39;99311.75;;;18.27;100.00
66560;BME280;53413;49.878;8.142;2023-07-29T01:51:05;99313.91;;;18.34;100.00
66560;BME280;53413;49.878;8.142;2023-07-29T01:53:31;99300.97;;;18.40;100.00
66560;BME280;53413;49.878;8.142;2023-07-29T01:55:56;99300.44;;;18.46;100.00
66560;BME280;53413;49.878;8.142;2023-07-29T01:58:22;99301.06;;;18.50;100.00
66560;BME280;53413;49.878;8.142;2023-07-29T02:00:48;99321.91;;;18.55;100.00
66560;BME280;53413;49.878;8.142;2023-07-29T02:03:13;99349.41;;;18.54;100.00
66560;BME280;53413;49.878;8.142;2023-07-29T02:05:39;99357.03;;;18.47;100.00
66560;BME280;53413;49.878;8.142;2023-07-29T02:08:04;99323.16;;;18.39;100.00
66560;BME280;53413;49.878;8.142;2023-07-29T02:10:29;99336.31;;;18.29;100.00
66560;BME280;53413;49.878;8.142;2023-07-29T02:12:55;99331.53;;;18.23;100.00
66560;BME280;53413;49.878;8.142;2023-07-29T02:15:20;99327.06;;;18.24;100.00
66560;BME280;53413;49.878;8.142;2023-07-29T02:17:45;99328.75;;;18.25;100.00
66560;BME280;53413;49.878;8.142;2023-07-29T02:20:11;99319.81;;;18.26;100.00
66560;BME280;53413;49.878;8.142;2023-07-29T02:22:36;99324.88;;;18.29;100.00
66560;BME280;53413;49.878;8.142;2023-07-29T02:25:01;99314.13;;;18.30;100.00
66560;BME280;53413;49.878;8.142;2023-07-29T02:27:28;99310.91;;;18.27;100.00
66560;BME280;53413;49.878;8.142;2023-07-29T02:29:53;99305.25;;;18.20;100.00
66560;BME280;53413;49.878;8.142;2023-07-29T02:32:19;99298.53;;;18.16;100.00
66560;BME280;53413;49.878;8.142;2023-07-29T02:34:45;99297.34;;;18.09;100.00
66560;BME280;53413;49.878;8.142;2023-07-29T02:37:10;99294.81;;;17.96;100.00
66560;BME280;53413;49.878;8.142;2023-07-29T02:39:36;99306.28;;;17.85;100.00
66560;BME280;53413;49.878;8.142;2023-07-29T02:42:02;99290.25;;;17.75;100.00
66560;BME280;53413;49.878;8.142;2023-07-29T02:44:27;99284.00;;;17.65;100.00
66560;BME280;53413;49.878;8.142;2023-07-29T02:46:52;99277.75;;;17.54;100.00
66560;BME280;53413;49.878;8.142;2023-07-29T02:49:19;99287.41;;;17.44;100.00
66560;BME280;53413;49.878;8.142;2023-07-29T02:51:45;99281.16;;;17.34;100.00
66560;BME280;53413;49.878;8.142;2023-07-29T02:54:10;99285.34;;;17.25;100.00
66560;BME280;53413;49.878;8.142;2023-07-29T02:56:35;99278.34;;;17.13;100.00
66560;BME280;53413;49.878;8.142;2023-07-29T02:59:01;99284.38;;;17.03;100.00
66560;BME280;53413;49.878;8.142;2023-07-29T03:01:26;99288.56;;;16.95;100.00
66560;BME280;53413;49.878;8.142;2023-07-29T03:03:52;99283.59;;;16.90;100.00
66560;BME280;53413;49.878;8.142;2023-07-29T03:06:18;99290.78;;;16.88;100.00
66560;BME280;53413;49.878;8.142;2023-07-29T03:08:44;99287.69;;;16.83;100.00
66560;BME280;53413;49.878;8.142;2023-07-29T03:11:11;99285.47;;;16.76;100.00
66560;BME280;53413;49.878;8.142;2023-07-29T03:13:37;99277.28;;;16.68;100.00
66560;BME280;53413;49.878;8.142;2023-07-29T03:16:13;99286.41;;;16.64;100.00
66560;BME280;53413;49.878;8.142;2023-07-29T03:18:39;99288.81;;;16.67;100.00
66560;BME280;53413;49.878;8.142;2023-07-29T03:21:05;99288.34;;;16.73;100.00
66560;BME280;53413;49.878;8.142;2023-07-29T03:23:32;99283.44;;;16.80;100.00
66560;BME280;53413;49.878;8.142;2023-07-29T03:25:59;99278.63;;;16.74;100.00
66560;BME280;53413;49.878;8.142;2023-07-29T03:28:29;99277.38;;;16.67;100.00
66560;BME280;53413;49.878;8.142;2023-07-29T03:30:55;99273.66;;;16.58;100.00
66560;BME280;53413;49.878;8.142;2023-07-29T03:33:21;99267.13;;;16.51;100.00
66560;BME280;53413;49.878;8.142;2023-07-29T03:35:46;99262.41;;;16.43;100.00
66560;BME280;53413;49.878;8.142;2023-07-29T03:38:12;99268.28;;;16.35;100.00
66560;BME280;53413;49.878;8.142;2023-07-29T03:40:38;99259.00;;;16.29;100.00
66560;BME280;53413;49.878;8.142;2023-07-29T03:43:04;99269.06;;;16.24;100.00
66560;BME280;53413;49.878;8.142;2023-07-29T03:45:29;99270.25;;;16.20;100.00
66560;BME280;53413;49.878;8.142;2023-07-29T03:47:54;99261.56;;;16.18;100.00
66560;BME280;53413;49.878;8.142;2023-07-29T03:50:20;99266.88;;;16.18;100.00
66560;BME280;53413;49.878;8.142;2023-07-29T03:52:46;99266.03;;;16.18;100.00
66560;BME280;53413;49.878;8.142;2023-07-29T03:55:11;99269.63;;;16.16;100.00
66560;BME280;53413;49.878;8.142;2023-07-29T03:57:36;99271.44;;;16.16;100.00
66560;BME280;53413;49.878;8.142;2023-07-29T04:00:02;99270.50;;;16.17;100.00
66560;BME280;53413;49.878;8.142;2023-07-29T04:02:28;99263.38;;;16.18;100.00
66560;BME280;53413;49.878;8.142;2023-07-29T04:04:53;99261.34;;;16.21;100.00
66560;BME280;53413;49.878;8.142;2023-07-29T04:07:19;99257.53;;;16.25;100.00
66560;BME280;53413;49.878;8.142;2023-07-29T04:09:44;99254.69;;;16.28;100.00
66560;BME280;53413;49.878;8.142;2023-07-29T04:12:10;99258.88;;;16.31;100.00
66560;BME280;53413;49.878;8.142;2023-07-29T04:14:35;99261.41;;;16.33;100.00
66560;BME280;53413;49.878;8.142;2023-07-29T04:17:00;99253.25;;;16.36;100.00
66560;BME280;53413;49.878;8.142;2023-07-29T04:19:26;99260.00;;;16.40;100.00
66560;BME280;53413;49.878;8.142;2023-07-29T04:21:51;99259.53;;;16.46;100.00
66560;BME280;53413;49.878;8.142;2023-07-29T04:24:17;99254.25;;;16.46;100.00
66560;BME280;53413;49.878;8.142;2023-07-29T04:26:42;99261.22;;;16.47;100.00
66560;BME280;53413;49.878;8.142;2023-07-29T04:29:07;99263.53;;;16.52;100.00
66560;BME280;53413;49.878;8.142;2023-07-29T04:31:33;99268.47;;;16.56;100.00
66560;BME280;53413;49.878;8.142;2023-07-29T04:33:58;99266.09;;;16.65;100.00
66560;BME280;53413;49.878;8.142;2023-07-29T04:36:23;99257.94;;;16.79;100.00
66560;BME280;53413;49.878;8.142;2023-07-29T04:38:49;99255.31;;;16.90;100.00
66560;BME280;53413;49.878;8.142;2023-07-29T04:41:14;99255.63;;;16.99;100.00
66560;BME280;53413;49.878;8.142;2023-07-29T04:43:39;99259.09;;;17.11;100.00
66560;BME280;53413;49.878;8.142;2023-07-29T04:46:08;99267.53;;;17.27;100.00
66560;BME280;53413;49.878;8.142;2023-07-29T04:48:33;99264.06;;;17.49;100.00
66560;BME280;53413;49.878;8.142;2023-07-29T04:50:59;99248.81;;;17.74;100.00
66560;BME280;53413;49.878;8.142;2023-07-29T04:53:24;99241.56;;;17.99;100.00
66560;BME280;53413;49.878;8.142;2023-07-29T04:55:49;99239.09;;;18.19;100.00
66560;BME280;53413;49.878;8.142;2023-07-29T04:58:15;99227.34;;;18.33;100.00
66560;BME280;53413;49.878;8.142;2023-07-29T05:00:40;99223.66;;;18.45;100.00
66560;BME280;53413;49.878;8.142;2023-07-29T05:03:05;99231.56;;;18.56;100.00
66560;BME280;53413;49.878;8.142;2023-07-29T05:05:31;99230.38;;;18.70;100.00
66560;BME280;53413;49.878;8.142;2023-07-29T05:07:57;99234.63;;;18.94;100.00
66560;BME280;53413;49.878;8.142;2023-07-29T05:10:22;99235.31;;;19.27;100.00
66560;BME280;53413;49.878;8.142;2023-07-29T05:12:48;99226.78;;;19.74;100.00
66560;BME280;53413;49.878;8.142;2023-07-29T05:15:13;99220.81;;;20.11;100.00
66560;BME280;53413;49.878;8.142;2023-07-29T05:17:39;99222.25;;;20.25;100.00
66560;BME280;53413;49.878;8.142;2023-07-29T05:20:05;99225.03;;;20.24;100.00
66560;BME280;53413;49.878;8.142;2023-07-29T05:22:30;99228.25;;;20.18;100.00
66560;BME280;53413;49.878;8.142;2023-07-29T05:24:55;99227.28;;;20.09;100.00
66560;BME280;53413;49.878;8.142;2023-07-29T05:27:21;99229.38;;;20.05;100.00
66560;BME280;53413;49.878;8.142;2023-07-29T05:29:46;99229.94;;;20.09;100.00
66560;BME280;53413;49.878;8.142;2023-07-29T05:32:11;99230.66;;;20.11;100.00
66560;BME280;53413;49.878;8.142;2023-07-29T05:34:37;99217.75;;;19.96;100.00
66560;BME280;53413;49.878;8.142;2023-07-29T05:37:02;99234.06;;;19.82;100.00
66560;BME280;53413;49.878;8.142;2023-07-29T05:39:28;99233.47;;;19.68;100.00
66560;BME280;53413;49.878;8.142;2023-07-29T05:41:53;99243.97;;;19.60;100.00
66560;BME280;53413;49.878;8.142;2023-07-29T05:44:19;99249.13;;;19.62;100.00
66560;BME280;53413;49.878;8.142;2023-07-29T05:46:45;99238.19;;;19.55;100.00
66560;BME280;53413;49.878;8.142;2023-07-29T05:49:10;99245.50;;;19.53;100.00
66560;BME280;53413;49.878;8.142;2023-07-29T05:51:35;99247.03;;;19.56;100.00
66560;BME280;53413;49.878;8.142;2023-07-29T05:54:01;99250.09;;;19.61;100.00
66560;BME280;53413;49.878;8.142;2023-07-29T05:56:26;99260.63;;;19.62;100.00
66560;BME280;53413;49.878;8.142;2023-07-29T05:58:51;99263.97;;;19.64;100.00
66560;BME280;53413;49.878;8.142;2023-07-29T06:01:17;99274.63;;;19.64;100.00
66560;BME280;53413;49.878;8.142;2023-07-29T06:03:42;99275.19;;;19.68;100.00
66560;BME280;53413;49.878;8.142;2023-07-29T06:06:08;99265.97;;;19.72;100.00
66560;BME280;53413;49.878;8.142;2023-07-29T06:08:33;99263.31;;;19.72;100.00
66560;BME280;53413;49.878;8.142;2023-07-29T06:11:00;99257.53;;;19.67;100.00
66560;BME280;53413;49.878;8.142;2023-07-29T06:13:25;99246.34;;;19.63;100.00
66560;BME280;53413;49.878;8.142;2023-07-29T06:15:50;99256.28;;;19.61;100.00
66560;BME280;53413;49.878;8.142;2023-07-29T06:18:16;99254.75;;;19.59;100.00
66560;BME280;53413;49.878;8.142;2023-07-29T06:20:41;99258.63;;;19.54;100.00
66560;BME280;53413;49.878;8.142;2023-07-29T06:23:07;99261.56;;;19.51;100.00
66560;BME280;53413;49.878;8.142;2023-07-29T06:25:33;99250.91;;;19.42;100.00
66560;BME280;53413;49.878;8.142;2023-07-29T06:27:58;99241.78;;;19.34;100.00
66560;BME280;53413;49.878;8.142;2023-07-29T06:30:23;99248.47;;;19.29;100.00
66560;BME280;53413;49.878;8.142;2023-07-29T06:32:49;99267.59;;;19.22;100.00
66560;BME280;53413;49.878;8.142;2023-07-29T06:35:14;99274.97;;;19.19;100.00
66560;BME280;53413;49.878;8.142;2023-07-29T06:37:40;99265.72;;;19.13;100.00
66560;BME280;53413;49.878;8.142;2023-07-29T06:40:05;99271.88;;;19.14;100.00
66560;BME280;53413;49.878;8.142;2023-07-29T06:42:31;99262.69;;;19.18;100.00
66560;BME280;53413;49.878;8.142;2023-07-29T06:44:56;99229.97;;;19.17;100.00
66560;BME280;53413;49.878;8.142;2023-07-29T06:47:21;99206.94;;;19.18;100.00
66560;BME280;53413;49.878;8.142;2023-07-29T06:49:47;99227.16;;;19.19;100.00
66560;BME280;53413;49.878;8.142;2023-07-29T06:52:12;99265.22;;;19.19;100.00
66560;BME280;53413;49.878;8.142;2023-07-29T06:54:38;99285.09;;;19.25;100.00
66560;BME280;53413;49.878;8.142;2023-07-29T06:57:03;99285.53;;;19.30;100.00
66560;BME280;53413;49.878;8.142;2023-07-29T06:59:29;99292.81;;;19.38;100.00
66560;BME280;53413;49.878;8.142;2023-07-29T07:01:54;99288.09;;;19.42;100.00
66560;BME280;53413;49.878;8.142;2023-07-29T07:04:19;99300.38;;;19.43;100.00
66560;BME280;53413;49.878;8.142;2023-07-29T07:06:45;99296.06;;;19.42;100.00
66560;BME280;53413;49.878;8.142;2023-07-29T07:09:10;99295.66;;;19.46;100.00
66560;BME280;53413;49.878;8.142;2023-07-29T07:11:36;99299.88;;;19.49;100.00
66560;BME280;53413;49.878;8.142;2023-07-29T07:14:01;99295.44;;;19.59;100.00
66560;BME280;53413;49.878;8.142;2023-07-29T07:16:26;99295.59;;;19.67;100.00
66560;BME280;53413;49.878;8.142;2023-07-29T07:18:54;99299.25;;;19.76;100.00
66560;BME280;53413;49.878;8.142;2023-07-29T07:21:19;99296.50;;;19.88;100.00
66560;BME280;53413;49.878;8.142;2023-07-29T07:23:45;99299.91;;;19.99;100.00
66560;BME280;53413;49.878;8.142;2023-07-29T07:26:10;99286.50;;;20.11;100.00
66560;BME280;53413;49.878;8.142;2023-07-29T07:28:35;99278.78;;;20.27;100.00
66560;BME280;53413;49.878;8.142;2023-07-29T07:31:02;99271.38;;;20.41;100.00
66560;BME280;53413;49.878;8.142;2023-07-29T07:33:27;99274.88;;;20.41;100.00
66560;BME280;53413;49.878;8.142;2023-07-29T07:35:53;99275.59;;;20.34;100.00
66560;BME280;53413;49.878;8.142;2023-07-29T07:38:18;99275.03;;;20.30;100.00
66560;BME280;53413;49.878;8.142;2023-07-29T07:40:52;99282.56;;;20.25;100.00
66560;BME280;53413;49.878;8.142;2023-07-29T07:43:19;99282.72;;;20.43;100.00
66560;BME280;53413;49.878;8.142;2023-07-29T07:45:44;99288.19;;;20.71;100.00
66560;BME280;53413;49.878;8.142;2023-07-29T07:48:09;99289.69;;;21.03;100.00
66560;BME280;53413;49.878;8.142;2023-07-29T07:50:37;99287.59;;;22.00;100.00
66560;BME280;53413;49.878;8.142;2023-07-29T07:53:02;99275.03;;;23.78;100.00
66560;BME280;53413;49.878;8.142;2023-07-29T07:55:27;99278.28;;;26.80;100.00
66560;BME280;53413;49.878;8.142;2023-07-29T07:57:53;99267.09;;;27.07;95.68
66560;BME280;53413;49.878;8.142;2023-07-29T08:00:18;99272.56;;;26.75;94.80
66560;BME280;53413;49.878;8.142;2023-07-29T08:02:45;99280.03;;;26.50;92.74
66560;BME280;53413;49.878;8.142;2023-07-29T08:05:10;99289.44;;;27.82;86.67
66560;BME280;53413;49.878;8.142;2023-07-29T08:07:35;99286.94;;;29.17;76.24
66560;BME280;53413;49.878;8.142;2023-07-29T08:10:01;99297.25;;;30.66;69.56
66560;BME280;53413;49.878;8.142;2023-07-29T08:12:26;99299.75;;;30.88;67.38
66560;BME280;53413;49.878;8.142;2023-07-29T08:14:51;99293.34;;;32.14;60.93
66560;BME280;53413;49.878;8.142;2023-07-29T08:17:17;99296.94;;;31.55;60.62
66560;BME280;53413;49.878;8.142;2023-07-29T08:19:42;99288.00;;;31.48;59.59
66560;BME280;53413;49.878;8.142;2023-07-29T08:22:07;99291.00;;;30.86;60.61
66560;BME280;53413;49.878;8.142;2023-07-29T08:24:33;99299.03;;;30.12;61.31
66560;BME280;53413;49.878;8.142;2023-07-29T08:26:59;99297.72;;;29.11;65.39
66560;BME280;53413;49.878;8.142;2023-07-29T08:29:24;99280.88;;;29.37;65.97
66560;BME280;53413;49.878;8.142;2023-07-29T08:31:49;99268.81;;;31.56;60.21
66560;BME280;53413;49.878;8.142;2023-07-29T08:34:16;99271.53;;;34.81;53.25
66560;BME280;53413;49.878;8.142;2023-07-29T08:36:42;99282.00;;;39.23;43.68
66560;BME280;53413;49.878;8.142;2023-07-29T08:39:07;99285.63;;;40.23;39.66
66560;BME280;53413;49.878;8.142;2023-07-29T08:41:38;99290.69;;;38.67;41.02
66560;BME280;53413;49.878;8.142;2023-07-29T08:44:12;99279.00;;;37.22;43.34
66560;BME280;53413;49.878;8.142;2023-07-29T08:46:42;99282.41;;;37.52;42.80
66560;BME280;53413;49.878;8.142;2023-07-29T08:49:07;99281.19;;;38.42;42.86
66560;BME280;53413;49.878;8.142;2023-07-29T08:51:33;99276.22;;;38.39;41.98
66560;BME280;53413;49.878;8.142;2023-07-29T08:53:59;99277.88;;;38.72;40.14
66560;BME280;53413;49.878;8.142;2023-07-29T08:56:25;99278.13;;;37.17;42.92
66560;BME280;53413;49.878;8.142;2023-07-29T08:58:51;99276.38;;;35.14;45.44
66560;BME280;53413;49.878;8.142;2023-07-29T09:01:17;99272.56;;;33.83;47.56
66560;BME280;53413;49.878;8.142;2023-07-29T09:03:43;99283.00;;;32.61;49.15
66560;BME280;53413;49.878;8.142;2023-07-29T09:06:08;99270.56;;;31.89;51.51
66560;BME280;53413;49.878;8.142;2023-07-29T09:08:34;99271.41;;;31.11;53.11
66560;BME280;53413;49.878;8.142;2023-07-29T09:11:00;99284.09;;;30.16;55.58
66560;BME280;53413;49.878;8.142;2023-07-29T09:13:26;99282.63;;;29.65;57.76
66560;BME280;53413;49.878;8.142;2023-07-29T09:15:55;99272.91;;;31.13;54.82
66560;BME280;53413;49.878;8.142;2023-07-29T09:18:21;99282.88;;;31.13;54.44
66560;BME280;53413;49.878;8.142;2023-07-29T09:20:48;99283.72;;;31.27;54.65
66560;BME280;53413;49.878;8.142;2023-07-29T09:23:14;99289.38;;;33.43;51.08
66560;BME280;53413;49.878;8.142;2023-07-29T09:25:40;99284.44;;;36.32;45.48
66560;BME280;53413;49.878;8.142;2023-07-29T09:28:13;99283.09;;;36.34;44.43
66560;BME280;53413;49.878;8.142;2023-07-29T09:30:39;99282.72;;;35.97;45.17
66560;BME280;53413;49.878;8.142;2023-07-29T09:33:06;99286.25;;;35.68;46.15
66560;BME280;53413;49.878;8.142;2023-07-29T09:35:33;99285.28;;;34.98;46.71
66560;BME280;53413;49.878;8.142;2023-07-29T09:37:59;99276.59;;;35.37;46.42
66560;BME280;53413;49.878;8.142;2023-07-29T09:40:25;99269.19;;;38.86;42.11
66560;BME280;53413;49.878;8.142;2023-07-29T09:42:52;99272.66;;;42.17;36.58
66560;BME280;53413;49.878;8.142;2023-07-29T09:45:25;99261.81;;;43.19;33.41
66560;BME280;53413;49.878;8.142;2023-07-29T09:47:54;99258.97;;;42.76;33.97
66560;BME280;53413;49.878;8.142;2023-07-29T09:50:23;99263.97;;;42.69;34.03
66560;BME280;53413;49.878;8.142;2023-07-29T09:52:51;99258.34;;;42.20;34.79
66560;BME280;53413;49.878;8.142;2023-07-29T09:55:18;99251.66;;;42.61;33.65
66560;BME280;53413;49.878;8.142;2023-07-29T09:57:44;99255.84;;;43.31;32.65
66560;BME280;53413;49.878;8.142;2023-07-29T10:00:13;99260.25;;;44.14;32.39
66560;BME280;53413;49.878;8.142;2023-07-29T10:02:40;99259.56;;;44.36;31.69
66560;BME280;53413;49.878;8.142;2023-07-29T10:05:07;99259.91;;;43.15;32.02
66560;BME280;53413;49.878;8.142;2023-07-29T10:07:35;99269.72;;;41.63;33.74
66560;BME280;53413;49.878;8.142;2023-07-29T10:10:02;99262.66;;;39.45;37.97
66560;BME280;53413;49.878;8.142;2023-07-29T10:12:29;99258.28;;;37.43;39.98
66560;BME280;53413;49.878;8.142;2023-07-29T10:15:02;99253.31;;;35.99;42.76
66560;BME280;53413;49.878;8.142;2023-07-29T10:17:29;99259.69;;;36.50;41.58
66560;BME280;53413;49.878;8.142;2023-07-29T10:19:56;99245.47;;;36.02;41.68
66560;BME280;53413;49.878;8.142;2023-07-29T10:22:25;99238.28;;;35.96;43.47
66560;BME280;53413;49.878;8.142;2023-07-29T10:24:54;99236.00;;;35.23;45.14
66560;BME280;53413;49.878;8.142;2023-07-29T10:27:22;99243.47;;;34.02;46.57
66560;BME280;53413;49.878;8.142;2023-07-29T10:29:50;99243.94;;;33.13;47.23
66560;BME280;53413;49.878;8.142;2023-07-29T10:32:16;99240.84;;;32.65;48.40
66560;BME280;53413;49.878;8.142;2023-07-29T10:34:42;99240.97;;;32.20;50.37
66560;BME280;53413;49.878;8.142;2023-07-29T10:37:07;99241.63;;;32.15;51.54
66560;BME280;53413;49.878;8.142;2023-07-29T10:39:40;99241.28;;;32.37;51.10
66560;BME280;53413;49.878;8.142;2023-07-29T10:42:06;99233.50;;;32.47;50.56
66560;BME280;53413;49.878;8.142;2023-07-29T10:47:26;99232.91;;;32.13;51.18
66560;BME280;53413;49.878;8.142;2023-07-29T10:49:59;99225.31;;;31.90;51.61
66560;BME280;53413;49.878;8.142;2023-07-29T10:54:59;99221.69;;;31.12;52.89
66560;BME280;53413;49.878;8.142;2023-07-29T10:57:38;99213.75;;;31.10;53.71
66560;BME280;53413;49.878;8.142;2023-07-29T11:00:04;99206.97;;;30.81;50.00
66560;BME280;53413;49.878;8.142;2023-07-29T11:02:31;99229.63;;;30.39;49.38
66560;BME280;53413;49.878;8.142;2023-07-29T11:04:57;99216.69;;;29.88;53.30
66560;BME280;53413;49.878;8.142;2023-07-29T11:07:24;99209.97;;;29.70;53.35
66560;BME280;53413;49.878;8.142;2023-07-29T11:09:54;99213.69;;;29.62;55.38
66560;BME280;53413;49.878;8.142;2023-07-29T11:12:51;99219.06;;;29.56;52.94
66560;BME280;53413;49.878;8.142;2023-07-29T11:15:23;99211.94;;;29.41;54.19
66560;BME280;53413;49.878;8.142;2023-07-29T11:17:59;99217.84;;;29.58;52.89
66560;BME280;53413;49.878;8.142;2023-07-29T11:20:32;99215.16;;;29.65;51.86
66560;BME280;53413;49.878;8.142;2023-07-29T11:23:00;99208.34;;;29.83;50.89
66560;BME280;53413;49.878;8.142;2023-07-29T11:25:27;99211.78;;;30.18;50.14
66560;BME280;53413;49.878;8.142;2023-07-29T11:27:57;99201.78;;;30.25;47.75
66560;BME280;53413;49.878;8.142;2023-07-29T11:30:23;99219.69;;;30.47;49.71
66560;BME280;53413;49.878;8.142;2023-07-29T11:32:53;99215.72;;;30.69;46.86
66560;BME280;53413;49.878;8.142;2023-07-29T11:35:19;99212.97;;;30.96;46.86
66560;BME280;53413;49.878;8.142;2023-07-29T11:37:46;99209.91;;;30.66;46.62
66560;BME280;53413;49.878;8.142;2023-07-29T11:40:18;99216.56;;;30.36;47.06
66560;BME280;53413;49.878;8.142;2023-07-29T11:42:44;99219.66;;;30.33;47.41
66560;BME280;53413;49.878;8.142;2023-07-29T11:45:10;99213.63;;;30.18;46.87
66560;BME280;53413;49.878;8.142;2023-07-29T11:47:36;99217.97;;;30.05;46.38
66560;BME280;53413;49.878;8.142;2023-07-29T11:50:06;99217.56;;;30.02;47.11
66560;BME280;53413;49.878;8.142;2023-07-29T11:52:35;99206.75;;;29.95;47.66
66560;BME280;53413;49.878;8.142;2023-07-29T11:55:02;99205.00;;;29.74;46.81
66560;BME280;53413;49.878;8.142;2023-07-29T11:57:29;99204.50;;;29.43;48.19
66560;BME280;53413;49.878;8.142;2023-07-29T11:59:55;99196.41;;;29.08;48.11
66560;BME280;53413;49.878;8.142;2023-07-29T12:02:21;99200.50;;;28.69;47.78
66560;BME280;53413;49.878;8.142;2023-07-29T12:04:48;99210.63;;;28.60;50.75
66560;BME280;53413;49.878;8.142;2023-07-29T12:07:16;99205.59;;;28.79;50.98
66560;BME280;53413;49.878;8.142;2023-07-29T12:09:42;99204.25;;;28.96;48.53
66560;BME280;53413;49.878;8.142;2023-07-29T12:12:08;99207.72;;;28.90;49.09
66560;BME280;53413;49.878;8.142;2023-07-29T12:14:34;99207.84;;;28.75;49.86
66560;BME280;53413;49.878;8.142;2023-07-29T12:17:05;99198.44;;;28.71;49.20
66560;BME280;53413;49.878;8.142;2023-07-29T12:19:34;99203.03;;;28.42;50.02
66560;BME280;53413;49.878;8.142;2023-07-29T12:22:04;99199.69;;;28.40;49.34
66560;BME280;53413;49.878;8.142;2023-07-29T12:24:35;99210.03;;;28.36;51.12
66560;BME280;53413;49.878;8.142;2023-07-29T12:27:01;99201.19;;;28.21;49.88
66560;BME280;53413;49.878;8.142;2023-07-29T12:29:27;99205.53;;;28.22;50.55
66560;BME280;53413;49.878;8.142;2023-07-29T12:32:03;99202.91;;;28.29;49.72
66560;BME280;53413;49.878;8.142;2023-07-29T12:34:29;99200.47;;;28.12;49.80
66560;BME280;53413;49.878;8.142;2023-07-29T12:36:56;99200.09;;;28.15;51.32
66560;BME280;53413;49.878;8.142;2023-07-29T12:39:27;99195.34;;;28.17;50.88
66560;BME280;53413;49.878;8.142;2023-07-29T12:41:57;99196.25;;;28.24;51.14
66560;BME280;53413;49.878;8.142;2023-07-29T12:44:24;99193.88;;;28.36;50.35
66560;BME280;53413;49.878;8.142;2023-07-29T12:46:50;99201.22;;;28.06;50.51
66560;BME280;53413;49.878;8.142;2023-07-29T12:49:16;99196.38;;;27.94;49.47
66560;BME280;53413;49.878;8.142;2023-07-29T12:51:42;99200.47;;;28.12;48.72
66560;BME280;53413;49.878;8.142;2023-07-29T12:54:08;99194.56;;;28.23;49.30
66560;BME280;53413;49.878;8.142;2023-07-29T12:56:33;99190.63;;;28.19;48.86